createdAt,value
2019-02-28T00:00:55.290Z,6.87
2019-02-28T00:01:55.303Z,6.88
2019-02-28T00:02:58.681Z,6.77
2019-02-28T00:03:57.913Z,6.85
2019-02-28T00:04:55.360Z,6.71
2019-02-28T00:05:55.372Z,6.76
2019-02-28T00:06:55.391Z,6.8
2019-02-28T00:07:55.404Z,6.79
2019-02-28T00:09:10.084Z,6.67
2019-02-28T00:09:57.323Z,6.71
2019-02-28T00:10:55.454Z,6.73
2019-02-28T00:11:55.468Z,6.85
2019-02-28T00:12:55.485Z,6.71
2019-02-28T00:14:00.077Z,6.79
2019-02-28T00:14:58.570Z,6.74
2019-02-28T00:15:55.607Z,6.71
2019-02-28T00:16:55.550Z,6.67
2019-02-28T00:18:55.582Z,6.73
2019-02-28T00:19:57.952Z,6.69
2019-02-28T00:21:10.277Z,6.7
2019-02-28T00:22:11.309Z,6.79
2019-02-28T00:22:55.653Z,6.71
2019-02-28T00:24:01.376Z,6.71
2019-02-28T00:25:10.341Z,6.7
2019-02-28T00:25:55.694Z,6.64
2019-02-28T00:26:55.734Z,6.7
2019-02-28T00:28:12.177Z,6.58
2019-02-28T00:28:56.950Z,6.56
2019-02-28T00:29:55.769Z,6.61
2019-02-28T00:30:55.773Z,6.56
2019-02-28T00:31:55.799Z,6.56
2019-02-28T00:33:01.203Z,6.58
2019-02-28T00:34:55.838Z,6.49
2019-02-28T00:35:55.856Z,6.51
2019-02-28T00:37:12.905Z,6.36
2019-02-28T00:38:10.550Z,6.49
2019-02-28T00:38:55.902Z,6.4
2019-02-28T00:40:10.590Z,6.41
2019-02-28T00:40:55.935Z,6.54
2019-02-28T00:41:55.949Z,6.61
2019-02-28T00:42:56.261Z,6.54
2019-02-28T00:43:59.356Z,6.54
2019-02-28T00:44:56.003Z,6.59
2019-02-28T00:45:56.015Z,6.56
2019-02-28T00:46:56.031Z,6.43
2019-02-28T00:47:56.047Z,6.38
2019-02-28T00:48:58.020Z,6.52
2019-02-28T00:49:58.122Z,6.37
2019-02-28T00:51:10.761Z,6.46
2019-02-28T00:51:56.111Z,6.4
2019-02-28T00:52:55.878Z,6.49
2019-02-28T00:53:56.143Z,6.38
2019-02-28T00:54:56.185Z,6.55
2019-02-28T00:55:56.177Z,6.46
2019-02-28T00:56:57.316Z,6.4
2019-02-28T00:57:58.347Z,6.43
2019-02-28T00:58:56.224Z,6.43
2019-02-28T00:59:56.237Z,6.37
2019-02-28T01:01:56.270Z,6.49
2019-02-28T01:03:00.377Z,6.38
2019-02-28T01:03:57.938Z,6.46
2019-02-28T01:04:56.318Z,6.38
2019-02-28T01:05:56.334Z,6.55
2019-02-28T01:06:56.350Z,6.52
2019-02-28T01:07:56.365Z,6.44
2019-02-28T01:09:00.607Z,6.52
2019-02-28T01:09:56.406Z,6.58
2019-02-28T01:12:11.093Z,6.58
2019-02-28T01:12:59.319Z,6.59
2019-02-28T01:13:58.035Z,6.46
2019-02-28T01:14:56.475Z,6.56
2019-02-28T01:15:56.502Z,6.41
2019-02-28T01:16:57.855Z,6.59
2019-02-28T01:17:57.100Z,6.61
2019-02-28T01:18:56.541Z,6.64
2019-02-28T01:19:56.569Z,6.58
2019-02-28T01:20:56.578Z,6.58
2019-02-28T01:21:57.895Z,6.54
2019-02-28T01:23:56.623Z,6.52
2019-02-28T01:25:11.301Z,6.51
2019-02-28T01:25:56.667Z,6.55
2019-02-28T01:26:56.668Z,6.55
2019-02-28T01:28:11.348Z,6.67
2019-02-28T01:29:01.337Z,6.67
2019-02-28T01:29:56.717Z,6.64
2019-02-28T01:30:56.737Z,6.61
2019-02-28T01:31:56.747Z,6.69
2019-02-28T01:32:56.767Z,6.69
2019-02-28T01:34:56.793Z,6.71
2019-02-28T01:35:56.810Z,6.74
2019-02-28T01:36:56.824Z,6.64
2019-02-28T01:37:57.775Z,6.73
2019-02-28T01:39:00.284Z,6.59
2019-02-28T01:39:56.879Z,6.71
2019-02-28T01:41:56.912Z,6.73
2019-02-28T01:42:59.687Z,6.81
2019-02-28T01:44:11.599Z,6.79
2019-02-28T01:44:56.962Z,6.94
2019-02-28T01:45:56.978Z,6.8
2019-02-28T01:46:56.996Z,6.88
2019-02-28T01:47:57.215Z,6.91
2019-02-28T01:48:59.868Z,6.95
2019-02-28T01:50:57.063Z,7.09
2019-02-28T01:53:11.746Z,7.28
2019-02-28T01:53:58.511Z,7.25
2019-02-28T01:54:58.537Z,7.24
2019-02-28T01:55:58.201Z,7.28
2019-02-28T01:57:11.806Z,7.31
2019-02-28T01:58:16.244Z,7.58
2019-02-28T01:58:57.174Z,7.57
2019-02-28T02:00:11.855Z,7.52
2019-02-28T02:00:59.894Z,7.61
2019-02-28T02:01:57.250Z,7.53
2019-02-28T02:02:57.238Z,7.64
2019-02-28T02:03:57.263Z,7.75
2019-02-28T02:04:57.279Z,7.95
2019-02-28T02:05:57.294Z,7.86
2019-02-28T02:07:02.140Z,7.83
2019-02-28T02:07:57.318Z,7.83
2019-02-28T02:09:57.349Z,7.92
2019-02-28T02:11:00.936Z,7.87
2019-02-28T02:12:00.480Z,7.83
2019-02-28T02:12:57.417Z,7.98
2019-02-28T02:13:57.413Z,7.92
2019-02-28T02:15:12.098Z,8.07
2019-02-28T02:15:57.446Z,8
2019-02-28T02:16:58.195Z,8.12
2019-02-28T02:17:57.488Z,8.1
2019-02-28T02:19:17.362Z,8.11
2019-02-28T02:20:12.245Z,8.08
2019-02-28T02:21:02.293Z,8.15
2019-02-28T02:21:57.550Z,8.15
2019-02-28T02:22:57.560Z,8.07
2019-02-28T02:23:58.556Z,8.05
2019-02-28T02:24:59.281Z,7.92
2019-02-28T02:26:12.272Z,8.08
2019-02-28T02:26:57.621Z,8.05
2019-02-28T02:27:58.696Z,7.98
2019-02-28T02:29:00.798Z,8.01
2019-02-28T02:29:57.674Z,7.89
2019-02-28T02:32:00.945Z,8.04
2019-02-28T02:32:57.729Z,8
2019-02-28T02:33:57.951Z,8.01
2019-02-28T02:35:05.787Z,7.98
2019-02-28T02:35:57.778Z,7.97
2019-02-28T02:36:59.285Z,7.95
2019-02-28T02:37:57.803Z,7.89
2019-02-28T02:38:57.826Z,7.89
2019-02-28T02:39:57.841Z,7.9
2019-02-28T02:41:04.853Z,8.02
2019-02-28T02:41:57.873Z,8
2019-02-28T02:42:57.883Z,7.85
2019-02-28T02:44:00.665Z,7.82
2019-02-28T02:44:58.019Z,8.01
2019-02-28T02:45:57.934Z,7.82
2019-02-28T02:47:12.614Z,7.9
2019-02-28T02:47:57.967Z,7.93
2019-02-28T02:48:57.763Z,8.04
2019-02-28T02:51:12.798Z,7.9
2019-02-28T02:51:58.032Z,8.02
2019-02-28T02:53:04.471Z,8.02
2019-02-28T02:53:57.814Z,7.98
2019-02-28T02:54:58.088Z,8.01
2019-02-28T02:56:03.440Z,7.93
2019-02-28T02:57:13.866Z,7.98
2019-02-28T02:57:58.158Z,7.98
2019-02-28T02:59:01.055Z,7.89
2019-02-28T03:00:13.656Z,7.97
2019-02-28T03:00:58.184Z,7.87
2019-02-28T03:02:01.217Z,7.95
2019-02-28T03:03:12.870Z,8.11
2019-02-28T03:03:58.230Z,8.1
2019-02-28T03:05:03.205Z,8
2019-02-28T03:05:58.029Z,8
2019-02-28T03:06:58.283Z,7.98
2019-02-28T03:08:04.490Z,7.86
2019-02-28T03:08:58.309Z,7.87
2019-02-28T03:09:58.330Z,7.89
2019-02-28T03:10:58.386Z,7.92
2019-02-28T03:12:58.379Z,7.89
2019-02-28T03:13:58.391Z,7.83
2019-02-28T03:14:58.419Z,7.79
2019-02-28T03:16:01.922Z,7.63
2019-02-28T03:16:58.459Z,7.68
2019-02-28T03:19:13.125Z,7.75
2019-02-28T03:19:58.484Z,7.67
2019-02-28T03:20:58.508Z,7.82
2019-02-28T03:21:58.515Z,7.79
2019-02-28T03:23:01.928Z,7.8
2019-02-28T03:24:58.573Z,7.86
2019-02-28T03:26:13.244Z,7.79
2019-02-28T03:28:15.981Z,7.83
2019-02-28T03:28:58.632Z,7.82
2019-02-28T03:29:58.646Z,7.79
2019-02-28T03:30:58.702Z,7.67
2019-02-28T03:32:02.076Z,7.74
2019-02-28T03:32:58.711Z,7.79
2019-02-28T03:34:13.884Z,7.69
2019-02-28T03:35:13.396Z,7.67
2019-02-28T03:35:58.748Z,7.75
2019-02-28T03:37:02.104Z,7.72
2019-02-28T03:37:58.804Z,7.69
2019-02-28T03:38:58.795Z,7.58
2019-02-28T03:40:07.848Z,7.55
2019-02-28T03:41:59.055Z,7.68
2019-02-28T03:43:05.183Z,7.71
2019-02-28T03:43:58.622Z,7.6
2019-02-28T03:45:02.928Z,7.68
2019-02-28T03:45:58.915Z,7.68
2019-02-28T03:47:13.580Z,7.64
2019-02-28T03:48:58.965Z,7.63
2019-02-28T03:50:13.648Z,7.6
2019-02-28T03:51:00.228Z,7.55
2019-02-28T03:52:04.935Z,7.57
2019-02-28T03:54:01.563Z,7.69
2019-02-28T03:55:03.083Z,7.79
2019-02-28T03:55:59.070Z,7.58
2019-02-28T03:56:59.079Z,7.64
2019-02-28T03:58:06.602Z,7.61
2019-02-28T03:58:59.127Z,7.53
2019-02-28T04:00:01.756Z,7.52
2019-02-28T04:00:59.159Z,7.52
2019-02-28T04:01:59.195Z,7.55
2019-02-28T04:03:03.676Z,7.61
2019-02-28T04:03:59.191Z,7.53
2019-02-28T04:06:05.904Z,7.61
2019-02-28T04:06:59.243Z,7.61
2019-02-28T04:07:59.878Z,7.52
2019-02-28T04:09:06.968Z,7.5
2019-02-28T04:09:59.290Z,7.49
2019-02-28T04:11:00.503Z,7.5
2019-02-28T04:12:06.961Z,7.5
2019-02-28T04:12:59.342Z,7.61
2019-02-28T04:14:01.595Z,7.55
2019-02-28T04:14:59.389Z,7.68
2019-02-28T04:16:13.049Z,7.55
2019-02-28T04:16:59.401Z,7.48
2019-02-28T04:18:06.529Z,7.52
2019-02-28T04:18:59.436Z,7.55
2019-02-28T04:20:03.654Z,7.45
2019-02-28T04:20:59.471Z,7.57
2019-02-28T04:22:14.142Z,7.57
2019-02-28T04:23:03.735Z,7.67
2019-02-28T04:23:59.272Z,7.58
2019-02-28T04:24:59.529Z,7.55
2019-02-28T04:26:02.455Z,7.5
2019-02-28T04:27:05.877Z,7.63
2019-02-28T04:27:59.577Z,7.58
2019-02-28T04:30:05.693Z,7.53
2019-02-28T04:30:59.628Z,7.53
2019-02-28T04:32:00.626Z,7.52
2019-02-28T04:33:06.051Z,7.45
2019-02-28T04:33:59.676Z,7.45
2019-02-28T04:36:59.723Z,7.53
2019-02-28T04:38:14.399Z,7.57
2019-02-28T04:38:59.769Z,7.45
2019-02-28T04:39:59.765Z,7.53
2019-02-28T04:41:01.408Z,7.43
2019-02-28T04:41:59.807Z,7.46
2019-02-28T04:42:59.815Z,7.5
2019-02-28T04:43:59.841Z,7.58
2019-02-28T04:44:59.851Z,7.63
2019-02-28T04:46:02.676Z,7.61
2019-02-28T04:46:59.889Z,7.58
2019-02-28T04:47:59.916Z,7.49
2019-02-28T04:48:59.913Z,7.46
2019-02-28T04:50:02.354Z,7.5
2019-02-28T04:51:02.235Z,7.53
2019-02-28T04:51:59.958Z,7.48
2019-02-28T04:54:14.653Z,7.6
2019-02-28T04:55:04.921Z,7.58
2019-02-28T04:56:00.023Z,7.58
2019-02-28T04:57:00.040Z,7.63
2019-02-28T04:58:00.058Z,7.53
2019-02-28T04:59:04.101Z,7.63
2019-02-28T05:00:00.395Z,7.5
2019-02-28T05:01:00.104Z,7.52
2019-02-28T05:02:00.118Z,7.55
2019-02-28T05:03:00.134Z,7.58
2019-02-28T05:04:04.185Z,7.58
2019-02-28T05:05:00.294Z,7.63
2019-02-28T05:06:00.182Z,7.61
2019-02-28T05:07:00.697Z,7.55
2019-02-28T05:08:04.517Z,7.58
2019-02-28T05:09:00.237Z,7.58
2019-02-28T05:10:14.910Z,7.55
2019-02-28T05:11:01.462Z,7.61
2019-02-28T05:12:02.372Z,7.53
2019-02-28T05:13:00.295Z,7.57
2019-02-28T05:14:00.321Z,7.52
2019-02-28T05:15:05.135Z,7.42
2019-02-28T05:17:00.358Z,7.48
2019-02-28T05:18:01.605Z,7.46
2019-02-28T05:19:06.160Z,7.48
2019-02-28T05:22:15.104Z,7.32
2019-02-28T05:23:15.116Z,7.32
2019-02-28T05:24:00.487Z,7.42
2019-02-28T05:25:20.245Z,7.42
2019-02-28T05:26:00.501Z,7.34
2019-02-28T05:27:04.588Z,7.35
2019-02-28T05:28:00.536Z,7.35
2019-02-28T05:29:00.555Z,7.25
2019-02-28T05:30:00.583Z,7.25
2019-02-28T05:31:00.336Z,7.25
2019-02-28T05:32:05.443Z,7.12
2019-02-28T05:33:00.619Z,7.16
2019-02-28T05:34:00.643Z,7.13
2019-02-28T05:35:15.312Z,7.2
2019-02-28T05:36:06.774Z,7.28
2019-02-28T05:37:00.677Z,7.27
2019-02-28T05:38:00.467Z,7.2
2019-02-28T05:39:01.973Z,7.27
2019-02-28T05:40:05.134Z,7.28
2019-02-28T05:41:00.739Z,7.23
2019-02-28T05:42:00.754Z,7.23
2019-02-28T05:43:03.863Z,7.24
2019-02-28T05:44:03.157Z,7.28
2019-02-28T05:45:00.803Z,7.21
2019-02-28T05:46:01.869Z,7.27
2019-02-28T05:47:03.570Z,7.31
2019-02-28T05:48:03.743Z,7.4
2019-02-28T05:49:00.866Z,7.37
2019-02-28T05:50:00.938Z,7.35
2019-02-28T05:52:03.776Z,7.25
2019-02-28T05:53:02.864Z,7.25
2019-02-28T05:54:00.946Z,7.28
2019-02-28T05:55:02.734Z,7.39
2019-02-28T05:57:15.656Z,7.31
2019-02-28T05:58:01.015Z,7.31
2019-02-28T05:59:01.038Z,7.28
2019-02-28T06:00:06.431Z,7.25
2019-02-28T06:01:01.055Z,7.23
2019-02-28T06:02:01.074Z,7.13
2019-02-28T06:03:05.067Z,7.25
2019-02-28T06:04:05.446Z,7.12
2019-02-28T06:05:01.143Z,7.27
2019-02-28T06:09:01.183Z,7.27
2019-02-28T06:10:01.205Z,7.25
2019-02-28T06:11:05.498Z,7.25
2019-02-28T06:12:01.240Z,7.35
2019-02-28T06:13:20.266Z,7.42
2019-02-28T06:14:01.270Z,7.43
2019-02-28T06:15:07.044Z,7.46
2019-02-28T06:16:01.306Z,7.35
2019-02-28T06:17:01.330Z,7.43
2019-02-28T06:18:01.349Z,7.49
2019-02-28T06:19:01.356Z,7.43
2019-02-28T06:20:01.376Z,7.48
2019-02-28T06:21:01.375Z,7.61
2019-02-28T06:22:04.298Z,7.63
2019-02-28T06:23:01.459Z,7.6
2019-02-28T06:24:01.431Z,7.58
2019-02-28T06:25:01.442Z,7.77
2019-02-28T06:26:04.256Z,7.8
2019-02-28T06:28:01.486Z,7.82
2019-02-28T06:29:16.167Z,7.85
2019-02-28T06:30:01.522Z,7.82
2019-02-28T06:31:02.843Z,7.93
2019-02-28T06:32:01.562Z,8.01
2019-02-28T06:33:04.168Z,8.04
2019-02-28T06:34:01.592Z,8.11
2019-02-28T06:35:02.342Z,8.11
2019-02-28T06:36:01.653Z,8.2
2019-02-28T06:37:05.725Z,8.38
2019-02-28T06:38:01.671Z,8.33
2019-02-28T06:39:01.688Z,8.3
2019-02-28T06:40:03.452Z,8.43
2019-02-28T06:41:04.206Z,8.38
2019-02-28T06:42:16.403Z,8.43
2019-02-28T06:43:01.758Z,8.5
2019-02-28T06:44:01.836Z,8.55
2019-02-28T06:45:16.461Z,8.56
2019-02-28T06:46:03.694Z,8.56
2019-02-28T06:47:01.836Z,8.61
2019-02-28T06:48:01.972Z,8.59
2019-02-28T06:49:09.549Z,8.74
2019-02-28T06:50:01.901Z,8.76
2019-02-28T06:51:01.920Z,8.83
2019-02-28T06:52:01.939Z,8.81
2019-02-28T06:53:04.554Z,8.83
2019-02-28T06:55:02.008Z,8.84
2019-02-28T06:56:21.833Z,8.89
2019-02-28T06:57:02.048Z,8.95
2019-02-28T06:58:03.658Z,9.05
2019-02-28T06:59:04.868Z,8.89
2019-02-28T07:00:16.779Z,9.01
2019-02-28T07:01:02.179Z,9.01
2019-02-28T07:02:02.573Z,9.13
2019-02-28T07:04:02.212Z,9.17
2019-02-28T07:05:02.222Z,9.2
2019-02-28T07:06:05.783Z,9.28
2019-02-28T07:07:02.281Z,9.32
2019-02-28T07:08:02.291Z,9.4
2019-02-28T07:10:02.365Z,9.36
2019-02-28T07:11:02.360Z,9.43
2019-02-28T07:12:02.383Z,9.47
2019-02-28T07:13:06.698Z,9.46
2019-02-28T07:14:02.178Z,9.42
2019-02-28T07:15:02.625Z,9.4
2019-02-28T07:16:06.786Z,9.56
2019-02-28T07:17:02.493Z,9.58
2019-02-28T07:18:02.517Z,9.56
2019-02-28T07:19:02.558Z,9.61
2019-02-28T07:20:06.577Z,9.65
2019-02-28T07:21:02.604Z,9.71
2019-02-28T07:22:02.610Z,9.69
2019-02-28T07:23:02.635Z,9.83
2019-02-28T07:24:05.060Z,9.87
2019-02-28T07:25:17.347Z,9.84
2019-02-28T07:26:02.705Z,9.89
2019-02-28T07:27:04.240Z,9.9
2019-02-28T07:28:06.585Z,9.94
2019-02-28T07:29:02.783Z,9.93
2019-02-28T07:30:02.980Z,9.84
2019-02-28T07:31:02.818Z,9.93
2019-02-28T07:32:17.505Z,10.04
2019-02-28T07:33:09.346Z,10.05
2019-02-28T07:34:02.887Z,10.14
2019-02-28T07:35:03.811Z,10.23
2019-02-28T07:36:05.559Z,10.3
2019-02-28T07:37:02.965Z,10.23
2019-02-28T07:38:02.986Z,10.14
2019-02-28T07:39:08.963Z,10.26
2019-02-28T07:40:03.055Z,10.32
2019-02-28T07:42:21.291Z,10.34
2019-02-28T07:43:03.106Z,10.32
2019-02-28T07:44:03.874Z,10.41
2019-02-28T07:45:03.759Z,10.26
2019-02-28T07:46:17.826Z,10.41
2019-02-28T07:47:03.186Z,10.38
2019-02-28T07:48:17.875Z,10.27
2019-02-28T07:49:05.745Z,10.3
2019-02-28T07:50:03.269Z,10.27
2019-02-28T07:51:04.107Z,10.33
2019-02-28T07:52:03.310Z,10.27
2019-02-28T07:53:05.489Z,10.32
2019-02-28T07:54:04.060Z,10.48
2019-02-28T07:55:03.373Z,10.55
2019-02-28T07:56:08.940Z,10.66
2019-02-28T07:57:18.082Z,10.79
2019-02-28T07:58:03.445Z,10.68
2019-02-28T07:59:05.233Z,10.56
2019-02-28T08:00:04.823Z,10.6
2019-02-28T08:01:03.518Z,10.61
2019-02-28T08:02:07.566Z,10.56
2019-02-28T08:03:03.557Z,10.71
2019-02-28T08:04:21.519Z,10.91
2019-02-28T08:05:05.445Z,10.74
2019-02-28T08:06:09.418Z,10.94
2019-02-28T08:07:03.640Z,10.91
2019-02-28T08:08:03.661Z,10.91
2019-02-28T08:09:07.249Z,10.92
2019-02-28T08:10:03.740Z,10.82
2019-02-28T08:11:03.729Z,10.74
2019-02-28T08:12:03.965Z,10.86
2019-02-28T08:13:05.543Z,10.97
2019-02-28T08:14:03.793Z,11.04
2019-02-28T08:15:03.831Z,11.15
2019-02-28T08:16:05.184Z,11.14
2019-02-28T08:17:18.524Z,11.14
2019-02-28T08:18:05.731Z,11.24
2019-02-28T08:19:03.903Z,11.27
2019-02-28T08:20:18.590Z,11.25
2019-02-28T08:21:05.268Z,11.21
2019-02-28T08:22:03.993Z,11.35
2019-02-28T08:23:03.993Z,11.29
2019-02-28T08:24:07.589Z,11.25
2019-02-28T08:25:04.147Z,11.29
2019-02-28T08:26:04.066Z,11.22
2019-02-28T08:27:04.109Z,11.21
2019-02-28T08:28:05.534Z,11.35
2019-02-28T08:29:04.129Z,11.39
2019-02-28T08:30:03.924Z,11.17
2019-02-28T08:31:04.171Z,11.15
2019-02-28T08:32:18.861Z,11.25
2019-02-28T08:33:04.232Z,11.42
2019-02-28T08:34:04.243Z,11.46
2019-02-28T08:35:18.922Z,11.42
2019-02-28T08:36:06.648Z,11.54
2019-02-28T08:37:04.302Z,11.69
2019-02-28T08:38:06.580Z,11.76
2019-02-28T08:39:06.026Z,11.65
2019-02-28T08:40:04.377Z,11.67
2019-02-28T08:41:06.370Z,11.36
2019-02-28T08:42:24.093Z,11.61
2019-02-28T08:43:04.441Z,11.58
2019-02-28T08:45:04.495Z,11.75
2019-02-28T08:46:19.170Z,11.69
2019-02-28T08:47:04.555Z,11.54
2019-02-28T08:49:08.763Z,11.61
2019-02-28T08:50:04.593Z,11.64
2019-02-28T08:51:04.638Z,11.73
2019-02-28T08:52:10.156Z,11.7
2019-02-28T08:53:04.654Z,11.76
2019-02-28T08:54:06.094Z,11.76
2019-02-28T08:55:11.656Z,11.82
2019-02-28T08:57:04.744Z,11.79
2019-02-28T08:58:25.499Z,11.76
2019-02-28T08:59:18.140Z,11.82
2019-02-28T09:00:04.978Z,11.62
2019-02-28T09:01:07.830Z,11.82
2019-02-28T09:02:04.853Z,11.82
2019-02-28T09:03:05.804Z,11.94
2019-02-28T09:05:06.647Z,12.02
2019-02-28T09:06:09.851Z,12.1
2019-02-28T09:07:19.623Z,11.98
2019-02-28T09:08:04.982Z,11.98
2019-02-28T09:09:05.419Z,11.94
2019-02-28T09:10:06.357Z,11.91
2019-02-28T09:11:05.054Z,11.94
2019-02-28T09:12:05.073Z,11.79
2019-02-28T09:13:10.197Z,11.75
2019-02-28T09:15:05.135Z,11.96
2019-02-28T09:16:24.147Z,12.13
2019-02-28T09:17:05.179Z,12.29
2019-02-28T09:18:07.163Z,12.31
2019-02-28T09:19:06.333Z,12.35
2019-02-28T09:20:07.406Z,12.29
2019-02-28T09:21:05.275Z,12.38
2019-02-28T09:22:05.288Z,12.37
2019-02-28T09:23:19.977Z,12.39
2019-02-28T09:24:05.345Z,12.42
2019-02-28T09:25:05.364Z,12.42
2019-02-28T09:26:05.928Z,12.35
2019-02-28T09:27:08.598Z,12.45
2019-02-28T09:28:05.427Z,12.47
2019-02-28T09:29:05.443Z,12.54
2019-02-28T09:30:05.488Z,12.53
2019-02-28T09:31:09.449Z,12.57
2019-02-28T09:32:05.559Z,12.64
2019-02-28T09:34:05.558Z,12.67
2019-02-28T09:35:12.910Z,12.65
2019-02-28T09:36:05.708Z,12.72
2019-02-28T09:37:05.718Z,12.83
2019-02-28T09:38:15.748Z,12.96
2019-02-28T09:39:22.540Z,12.95
2019-02-28T09:40:05.687Z,13.04
2019-02-28T09:42:05.734Z,12.86
2019-02-28T09:43:05.751Z,12.85
2019-02-28T09:44:07.037Z,12.85
2019-02-28T09:45:11.590Z,12.96
2019-02-28T09:46:05.844Z,13.14
2019-02-28T09:47:05.844Z,12.89
2019-02-28T09:48:07.133Z,12.82
2019-02-28T09:49:11.771Z,12.79
2019-02-28T09:50:05.916Z,12.49
2019-02-28T09:51:05.934Z,12.7
2019-02-28T09:52:10.788Z,12.85
2019-02-28T09:54:06.016Z,13.14
2019-02-28T09:55:20.687Z,13.05
2019-02-28T09:56:11.593Z,13.08
2019-02-28T09:57:06.070Z,13.15
2019-02-28T09:58:06.088Z,13.22
2019-02-28T09:59:08.637Z,13.01
2019-02-28T10:00:06.149Z,12.87
2019-02-28T10:01:06.158Z,12.97
2019-02-28T10:02:10.887Z,13.19
2019-02-28T10:03:06.864Z,13.03
2019-02-28T10:04:06.242Z,13
2019-02-28T10:05:25.488Z,13.22
2019-02-28T10:06:06.269Z,13.14
2019-02-28T10:07:06.295Z,13
2019-02-28T10:08:09.460Z,13.04
2019-02-28T10:09:08.707Z,13.26
2019-02-28T10:10:24.171Z,13.2
2019-02-28T10:11:06.381Z,13.29
2019-02-28T10:12:13.467Z,13.42
2019-02-28T10:13:06.423Z,13.28
2019-02-28T10:14:06.448Z,13.14
2019-02-28T10:15:12.128Z,13.12
2019-02-28T10:16:06.497Z,12.87
2019-02-28T10:17:06.518Z,12.87
2019-02-28T10:18:09.856Z,12.83
2019-02-28T10:19:21.223Z,12.92
2019-02-28T10:20:26.250Z,13.03
2019-02-28T10:21:07.279Z,13.05
2019-02-28T10:22:06.625Z,12.9
2019-02-28T10:23:06.651Z,12.96
2019-02-28T10:24:06.668Z,13.01
2019-02-28T10:25:10.899Z,13.05
2019-02-28T10:26:06.710Z,12.97
2019-02-28T10:27:08.300Z,12.87
2019-02-28T10:28:07.663Z,12.86
2019-02-28T10:29:12.967Z,12.9
2019-02-28T10:30:06.796Z,12.93
2019-02-28T10:31:06.820Z,13.07
2019-02-28T10:32:11.141Z,13.12
2019-02-28T10:33:06.871Z,12.96
2019-02-28T10:34:06.908Z,13.07
2019-02-28T10:35:07.117Z,13.17
2019-02-28T10:36:09.199Z,13.04
2019-02-28T10:37:09.103Z,13.15
2019-02-28T10:38:06.969Z,13.14
2019-02-28T10:39:08.853Z,13.22
2019-02-28T10:40:07.563Z,13.19
2019-02-28T10:41:07.036Z,13.3
2019-02-28T10:42:21.726Z,13.28
2019-02-28T10:43:07.078Z,13.33
2019-02-28T10:44:07.100Z,13.3
2019-02-28T10:45:10.909Z,13.19
2019-02-28T10:46:07.142Z,13.1
2019-02-28T10:47:07.164Z,13.29
2019-02-28T10:48:08.764Z,13.23
2019-02-28T10:49:07.210Z,13.2
2019-02-28T10:50:07.234Z,13.22
2019-02-28T10:51:17.741Z,13.36
2019-02-28T10:52:07.272Z,13.28
2019-02-28T10:53:10.568Z,13.38
2019-02-28T10:54:07.315Z,13.45
2019-02-28T10:55:07.339Z,13.66
2019-02-28T10:56:07.457Z,13.66
2019-02-28T10:57:22.567Z,13.51
2019-02-28T10:58:22.063Z,13.44
2019-02-28T10:59:07.430Z,13.36
2019-02-28T11:00:07.445Z,13.49
2019-02-28T11:02:07.486Z,13.36
2019-02-28T11:04:11.941Z,13.22
2019-02-28T11:05:08.018Z,13.17
2019-02-28T11:06:07.579Z,13.33
2019-02-28T11:07:09.530Z,13.33
2019-02-28T11:08:09.578Z,13.45
2019-02-28T11:09:07.639Z,13.44
2019-02-28T11:10:07.654Z,13.46
2019-02-28T11:11:22.358Z,13.59
2019-02-28T11:12:07.695Z,13.49
2019-02-28T11:13:07.744Z,13.39
2019-02-28T11:14:22.402Z,13.52
2019-02-28T11:15:10.370Z,13.3
2019-02-28T11:16:07.782Z,13.15
2019-02-28T11:17:15.262Z,13.19
2019-02-28T11:18:28.128Z,13.17
2019-02-28T11:19:07.844Z,13.11
2019-02-28T11:20:07.869Z,13.19
2019-02-28T11:21:07.889Z,13.14
2019-02-28T11:22:10.482Z,13.04
2019-02-28T11:23:22.594Z,13.03
2019-02-28T11:24:07.708Z,13.23
2019-02-28T11:25:22.635Z,13.22
2019-02-28T11:26:11.542Z,13.38
2019-02-28T11:27:22.981Z,13.36
2019-02-28T11:28:08.033Z,13.52
2019-02-28T11:30:22.737Z,13.49
2019-02-28T11:31:08.096Z,13.51
2019-02-28T11:32:08.124Z,13.48
2019-02-28T11:33:09.538Z,13.6
2019-02-28T11:34:08.159Z,13.49
2019-02-28T11:35:08.186Z,13.49
2019-02-28T11:36:09.886Z,13.44
2019-02-28T11:37:15.197Z,13.45
2019-02-28T11:38:09.810Z,13.41
2019-02-28T11:39:08.259Z,13.33
2019-02-28T11:40:11.579Z,13.32
2019-02-28T11:41:08.301Z,13.48
2019-02-28T11:42:08.322Z,13.48
2019-02-28T11:43:08.795Z,13.44
2019-02-28T11:44:09.174Z,13.44
2019-02-28T11:46:08.409Z,13.51
2019-02-28T11:47:13.148Z,13.41
2019-02-28T11:48:08.451Z,13.45
2019-02-28T11:49:08.470Z,13.48
2019-02-28T11:50:10.565Z,13.44
2019-02-28T11:51:08.515Z,13.38
2019-02-28T11:52:08.630Z,13.44
2019-02-28T11:54:12.192Z,13.64
2019-02-28T11:56:08.632Z,13.64
2019-02-28T11:57:26.229Z,13.48
2019-02-28T11:58:08.658Z,13.54
2019-02-28T11:59:08.682Z,13.57
2019-02-28T12:00:08.701Z,13.51
2019-02-28T12:02:08.739Z,13.52
2019-02-28T12:04:08.780Z,13.63
2019-02-28T12:05:08.803Z,13.59
2019-02-28T12:06:09.443Z,13.6
2019-02-28T12:07:08.843Z,13.62
2019-02-28T12:08:14.126Z,13.62
2019-02-28T12:09:08.884Z,13.52
2019-02-28T12:10:08.918Z,13.52
2019-02-28T12:12:12.517Z,13.57
2019-02-28T12:13:23.631Z,13.66
2019-02-28T12:14:11.077Z,13.64
2019-02-28T12:15:11.429Z,13.78
2019-02-28T12:16:09.026Z,13.73
2019-02-28T12:17:25.484Z,13.67
2019-02-28T12:18:09.709Z,13.7
2019-02-28T12:19:09.090Z,13.77
2019-02-28T12:21:09.803Z,13.82
2019-02-28T12:22:14.330Z,13.78
2019-02-28T12:23:09.175Z,13.78
2019-02-28T12:25:12.397Z,13.77
2019-02-28T12:27:09.260Z,13.63
2019-02-28T12:28:11.385Z,13.64
2019-02-28T12:29:23.963Z,13.71
2019-02-28T12:30:09.321Z,13.7
2019-02-28T12:31:09.442Z,13.67
2019-02-28T12:32:11.269Z,13.75
2019-02-28T12:33:25.811Z,13.88
2019-02-28T12:34:09.406Z,13.91
2019-02-28T12:35:09.427Z,13.73
2019-02-28T12:36:11.202Z,13.75
2019-02-28T12:37:09.470Z,13.64
2019-02-28T12:38:09.486Z,13.6
2019-02-28T12:39:09.507Z,13.85
2019-02-28T12:40:13.370Z,13.77
2019-02-28T12:41:25.127Z,13.79
2019-02-28T12:42:09.567Z,13.6
2019-02-28T12:43:11.112Z,13.7
2019-02-28T12:44:24.276Z,13.85
2019-02-28T12:45:09.634Z,13.89
2019-02-28T12:46:09.652Z,14.06
2019-02-28T12:47:12.000Z,14.09
2019-02-28T12:48:09.697Z,14.06
2019-02-28T12:49:27.503Z,14.17
2019-02-28T12:50:09.736Z,14.06
2019-02-28T12:51:10.820Z,14.2
2019-02-28T12:52:11.220Z,14.17
2019-02-28T12:53:09.807Z,14.15
2019-02-28T12:54:09.820Z,14.17
2019-02-28T12:55:09.851Z,14.24
2019-02-28T12:56:11.188Z,14.14
2019-02-28T12:57:09.887Z,14.06
2019-02-28T12:58:09.923Z,14.04
2019-02-28T12:59:12.427Z,13.99
2019-02-28T13:00:09.942Z,13.95
2019-02-28T13:01:09.970Z,13.92
2019-02-28T13:02:13.286Z,13.92
2019-02-28T13:03:11.588Z,13.92
2019-02-28T13:04:10.024Z,13.87
2019-02-28T13:05:24.711Z,13.91
2019-02-28T13:06:10.080Z,13.92
2019-02-28T13:08:11.615Z,13.95
2019-02-28T13:09:10.141Z,13.79
2019-02-28T13:10:10.156Z,13.82
2019-02-28T13:11:10.210Z,13.77
2019-02-28T13:12:14.549Z,13.78
2019-02-28T13:13:12.413Z,13.88
2019-02-28T13:14:11.337Z,13.92
2019-02-28T13:15:12.999Z,13.96
2019-02-28T13:16:10.320Z,13.95
2019-02-28T13:17:24.962Z,13.97
2019-02-28T13:18:28.731Z,13.97
2019-02-28T13:19:10.376Z,13.95
2019-02-28T13:20:25.036Z,14.03
2019-02-28T13:21:14.829Z,14.03
2019-02-28T13:22:10.436Z,14.15
2019-02-28T13:23:10.614Z,14.2
2019-02-28T13:24:14.441Z,14.18
2019-02-28T13:25:11.788Z,14.36
2019-02-28T13:26:10.484Z,14.33
2019-02-28T13:27:29.289Z,14.2
2019-02-28T13:28:10.557Z,14.1
2019-02-28T13:29:12.521Z,14.04
2019-02-28T13:30:16.326Z,14.07
2019-02-28T13:31:10.625Z,14.07
2019-02-28T13:32:10.632Z,14.22
2019-02-28T13:33:14.919Z,14.14
2019-02-28T13:34:10.654Z,14.18
2019-02-28T13:35:13.455Z,14.14
2019-02-28T13:36:12.861Z,14.18
2019-02-28T13:37:10.730Z,14.33
2019-02-28T13:38:17.327Z,14.42
2019-02-28T13:39:10.782Z,14.43
2019-02-28T13:40:14.072Z,14.4
2019-02-28T13:41:10.808Z,14.36
2019-02-28T13:42:10.837Z,14.4
2019-02-28T13:43:10.868Z,14.4
2019-02-28T13:44:25.547Z,14.39
2019-02-28T13:45:25.097Z,14.39
2019-02-28T13:46:12.923Z,14.28
2019-02-28T13:47:15.430Z,14.35
2019-02-28T13:48:12.363Z,14.17
2019-02-28T13:49:15.734Z,14.18
2019-02-28T13:50:11.031Z,14.18
2019-02-28T13:51:13.354Z,14.09
2019-02-28T13:52:25.699Z,14.02
2019-02-28T13:53:23.449Z,14.14
2019-02-28T13:54:12.177Z,14.04
2019-02-28T13:55:14.176Z,14.06
2019-02-28T13:56:11.114Z,14.06
2019-02-28T13:57:14.606Z,13.87
2019-02-28T13:58:11.203Z,13.73
2019-02-28T13:59:11.173Z,13.77
2019-02-28T14:00:28.328Z,13.75
2019-02-28T14:01:11.324Z,13.79
2019-02-28T14:02:13.515Z,13.71
2019-02-28T14:03:16.940Z,13.64
2019-02-28T14:04:11.350Z,13.6
2019-02-28T14:05:11.319Z,13.73
2019-02-28T14:06:19.841Z,13.63
2019-02-28T14:07:12.695Z,13.69